sensor_id;sensor_type;location;lat;lon;timestamp;pressure;altitude;pressure_sealevel;temperature;humidity
57610;BME280;43435;46.186;9.024;2023-08-12T14:49:38;98824.94;;;33.13;38.80
57610;BME280;43435;46.186;9.024;2023-08-12T14:52:03;98813.88;;;33.38;37.69
57610;BME280;43435;46.186;9.024;2023-08-12T14:54:29;98824.34;;;33.20;38.08
57610;BME280;43435;46.186;9.024;2023-08-12T14:56:54;98820.56;;;33.25;38.43
57610;BME280;43435;46.186;9.024;2023-08-12T14:59:19;98810.56;;;33.08;38.15
57610;BME280;43435;46.186;9.024;2023-08-12T15:01:44;98819.38;;;32.89;39.10
57610;BME280;43435;46.186;9.024;2023-08-12T15:04:10;98822.25;;;32.80;39.53
57610;BME280;43435;46.186;9.024;2023-08-12T15:06:35;98818.91;;;32.87;39.04
57610;BME280;43435;46.186;9.024;2023-08-12T15:09:00;98814.75;;;32.81;39.19
57610;BME280;43435;46.186;9.024;2023-08-12T15:11:25;98816.78;;;32.47;40.46
57610;BME280;43435;46.186;9.024;2023-08-12T15:13:50;98809.34;;;32.27;40.64
57610;BME280;43435;46.186;9.024;2023-08-12T15:16:16;98815.41;;;32.41;40.27
57610;BME280;43435;46.186;9.024;2023-08-12T15:18:41;98807.28;;;32.36;40.02
57610;BME280;43435;46.186;9.024;2023-08-12T15:21:07;98811.91;;;32.11;40.38
57610;BME280;43435;46.186;9.024;2023-08-12T15:23:33;98818.28;;;31.90;41.35
57610;BME280;43435;46.186;9.024;2023-08-12T15:26:00;98813.44;;;31.37;43.08
57610;BME280;43435;46.186;9.024;2023-08-12T15:28:25;98813.63;;;31.32;43.31
57610;BME280;43435;46.186;9.024;2023-08-12T15:30:50;98812.91;;;31.14;44.28
57610;BME280;43435;46.186;9.024;2023-08-12T15:33:15;98816.75;;;31.21;43.66
57610;BME280;43435;46.186;9.024;2023-08-12T15:35:41;98810.47;;;31.12;44.38
57610;BME280;43435;46.186;9.024;2023-08-12T15:38:07;98819.66;;;30.87;45.44
57610;BME280;43435;46.186;9.024;2023-08-12T15:40:32;98823.91;;;30.67;45.89
57610;BME280;43435;46.186;9.024;2023-08-12T15:42:57;98810.38;;;30.53;46.08
57610;BME280;43435;46.186;9.024;2023-08-12T15:45:22;98812.66;;;30.33;47.04
57610;BME280;43435;46.186;9.024;2023-08-12T15:47:47;98802.34;;;30.30;46.84
57610;BME280;43435;46.186;9.024;2023-08-12T15:50:13;98800.81;;;30.50;46.99
57610;BME280;43435;46.186;9.024;2023-08-12T15:52:38;98800.75;;;30.76;45.66
57610;BME280;43435;46.186;9.024;2023-08-12T15:55:03;98813.38;;;30.86;46.63
57610;BME280;43435;46.186;9.024;2023-08-12T15:57:29;98825.53;;;31.15;45.37
57610;BME280;43435;46.186;9.024;2023-08-12T15:59:54;98828.03;;;31.28;45.70
57610;BME280;43435;46.186;9.024;2023-08-12T16:02:19;98833.00;;;31.44;45.09
57610;BME280;43435;46.186;9.024;2023-08-12T16:04:44;98822.34;;;31.63;44.59
57610;BME280;43435;46.186;9.024;2023-08-12T16:07:09;98826.84;;;31.68;43.89
57610;BME280;43435;46.186;9.024;2023-08-12T16:09:35;98824.50;;;31.79;44.25
57610;BME280;43435;46.186;9.024;2023-08-12T16:12:00;98823.44;;;31.71;44.41
57610;BME280;43435;46.186;9.024;2023-08-12T16:14:25;98820.13;;;31.77;43.99
57610;BME280;43435;46.186;9.024;2023-08-12T16:16:50;98813.53;;;31.70;43.69
57610;BME280;43435;46.186;9.024;2023-08-12T16:19:16;98804.63;;;31.94;43.54
57610;BME280;43435;46.186;9.024;2023-08-12T16:21:41;98809.72;;;32.04;43.41
57610;BME280;43435;46.186;9.024;2023-08-12T16:24:06;98821.72;;;32.41;42.31
57610;BME280;43435;46.186;9.024;2023-08-12T16:26:31;98808.31;;;32.64;40.50
57610;BME280;43435;46.186;9.024;2023-08-12T16:28:57;98805.44;;;32.61;41.47
57610;BME280;43435;46.186;9.024;2023-08-12T16:31:22;98805.09;;;32.75;41.23
57610;BME280;43435;46.186;9.024;2023-08-12T16:33:48;98805.56;;;32.77;40.91
57610;BME280;43435;46.186;9.024;2023-08-12T16:36:13;98808.09;;;32.82;40.55
57610;BME280;43435;46.186;9.024;2023-08-12T16:38:38;98820.25;;;32.56;41.17
57610;BME280;43435;46.186;9.024;2023-08-12T16:41:03;98831.78;;;32.37;41.86
57610;BME280;43435;46.186;9.024;2023-08-12T16:43:29;98824.25;;;32.26;42.39
57610;BME280;43435;46.186;9.024;2023-08-12T16:45:54;98821.69;;;32.08;42.67
57610;BME280;43435;46.186;9.024;2023-08-12T16:48:19;98819.31;;;31.77;43.55
57610;BME280;43435;46.186;9.024;2023-08-12T16:50:44;98824.22;;;31.71;43.54
57610;BME280;43435;46.186;9.024;2023-08-12T16:53:09;98820.09;;;31.36;45.07
57610;BME280;43435;46.186;9.024;2023-08-12T16:55:35;98828.25;;;31.23;45.33
57610;BME280;43435;46.186;9.024;2023-08-12T16:58:00;98844.66;;;31.11;45.67
57610;BME280;43435;46.186;9.024;2023-08-12T17:00:26;98836.94;;;30.96;46.09
57610;BME280;43435;46.186;9.024;2023-08-12T17:02:51;98853.66;;;30.91;46.49
57610;BME280;43435;46.186;9.024;2023-08-12T17:05:16;98861.47;;;30.80;46.66
57610;BME280;43435;46.186;9.024;2023-08-12T19:44:32;99073.06;;;24.26;69.08
57610;BME280;43435;46.186;9.024;2023-08-12T19:46:58;99076.91;;;24.25;69.33
57610;BME280;43435;46.186;9.024;2023-08-12T19:49:24;99070.63;;;24.24;68.82
57610;BME280;43435;46.186;9.024;2023-08-12T19:51:49;99077.00;;;24.04;68.97
57610;BME280;43435;46.186;9.024;2023-08-12T19:54:14;99064.47;;;23.93;68.76
57610;BME280;43435;46.186;9.024;2023-08-12T19:56:39;99064.53;;;23.83;68.40
57610;BME280;43435;46.186;9.024;2023-08-12T19:59:05;99069.72;;;23.79;69.50
